• Join FlightAware (Why Join?)
  • Login
  • US Flag 
06:41AM EDT


 

Airport Tracker/Info


-or-


 

Live Flight TrackerFlight Track Log ✈ SKW5550 ✈ 08-Oct-2013 ✈ KCOD - KDEN

Flight Track Log - Related Links

Times and Time Zones

All times are in EDT time to prevent confusion due to time zone crossing. See the SKW5550 flight status page for this flight to view local times or setup timezone preferences in your user account.

Time Position Orientation Groundspeed Altitude Reporting Facility
EDT Latitude Longitude Course Direction KTS MPH feet Rate Location/Type
09:47AM 44.5372 -108.9958 144° Southeast 156 180 6,300  Level Salt Lake Center
09:48AM 44.5414 -108.9294 85° East 191 220 8,100 1,800 Climbing Salt Lake Center
09:49AM 44.0232 -108.5197 157° South  Level Estimated
09:49AM 44.4864 -108.8900 153° Southeast 220 253 10,100  Level Salt Lake Center
09:50AM 43.9401 -108.4365 156° South  Level Estimated
09:51AM 43.8570 -108.3536 142° Southeast  Level Estimated
09:51AM 44.4214 -108.8514 157° South 235 270 12,200  Level Salt Lake Center
09:52AM 43.7599 -108.3087 162° South  Level FlightAware Approximate
09:52AM 44.3483 -108.8072 157° South 260 299 14,100  Level Salt Lake Center
09:53AM 43.6771 -108.2254 144° Southeast  Level Estimated
09:53AM 44.2678 -108.7608 158° South 297 342 15,900  Level Salt Lake Center
09:54AM 44.1850 -108.7147 158° South 314 361 17,300 1,740 Climbing Salt Lake Center
09:55AM 44.0825 -108.6544 157° South 329 379 19,500 1,800 Climbing Salt Lake Center
09:56AM 43.9947 -108.6039 157° South 339 390 21,000 1,320 Climbing Salt Lake Center
09:57AM 43.9061 -108.5525 157° South 343 395 22,300 1,080 Climbing Salt Lake Center
09:58AM 43.8136 -108.5014 158° South 353 406 23,300 840 Climbing Salt Lake Center
09:59AM 43.7186 -108.4478 158° South 364 419 24,100 840 Climbing Salt Lake Center
10:00AM 43.6228 -108.4836 195° South 363 418 25,100 720 Climbing Salt Lake Center
10:01AM 43.5292 -108.5294 200° South 358 412 25,600 480 Climbing Salt Lake Center
10:02AM 43.4303 -108.5747 198° South 371 427 26,200 480 Climbing Salt Lake Center
10:03AM 43.3075 -108.5472 171° South 411 473 26,700 480 Climbing Salt Lake Center
10:04AM 43.2214 -108.4342 136° Southeast 427 491 27,300 600 Climbing Salt Lake Center
10:05AM 43.1347 -108.3228 137° Southeast 429 494 28,000 960 Climbing Salt Lake Center
10:06AM 43.0506 -108.2153 137° Southeast 420 483 29,300 900 Climbing Salt Lake Center
10:07AM 42.9697 -108.1103 136° Southeast 407 468 29,900 540 Climbing Salt Lake Center
10:08AM 42.8836 -108.0017 137° Southeast 407 468 30,500 480 Climbing Salt Lake Center
10:09AM 42.7900 -107.8828 137° Southeast 411 473 31,000 240 Climbing Salt Lake Center
10:10AM 42.7094 -107.7806 137° Southeast 412 474 31,000  Level Salt Lake Center
10:11AM 42.6306 -107.6811 137° Southeast 406 467 31,000  Level Salt Lake Center
10:12AM 42.5364 -107.5636 137° Southeast 410 472 31,000  Level Salt Lake Center
10:13AM 42.4536 -107.4597 137° Southeast 420 483 31,000  Level Salt Lake Center
10:14AM 42.3544 -107.3364 137° Southeast 430 495 31,000  Level Salt Lake Center
10:15AM 42.2678 -107.2297 138° Southeast 437 503 31,000  Level Salt Lake Center
10:16AM 42.1764 -107.1264 140° Southeast 445 512 31,000  Level Salt Lake Center
10:17AM 42.0725 -107.0106 140° Southeast 437 503 31,000  Level Salt Lake Center
10:18AM 41.9806 -106.9106 141° Southeast 440 506 31,000  Level Salt Lake Center
10:19AM 41.8775 -106.7975 141° Southeast 430 495 31,000  Level Salt Lake Center
10:20AM 41.7911 -106.7028 141° Southeast 422 486 31,000  Level Salt Lake Center
10:21AM 41.6961 -106.6006 141° Southeast 422 486 31,000  Level Salt Lake Center
10:22AM 41.6108 -106.5081 141° Southeast 416 479 31,000  Level Salt Lake Center
10:23AM 41.5194 -106.4100 141° Southeast 407 468 31,000  Level Salt Lake Center
10:25AM 41.3806 -106.2611 141° Southeast 424 488 31,000  Level Denver Center
10:26AM 41.2911 -106.1647 141° Southeast 431 496 31,000  Level Denver Center
10:27AM 41.1881 -106.0556 141° Southeast 426 490 31,000 -780 Level Denver Center
10:28AM 41.0986 -105.9614 142° Southeast 429 494 29,500 -1,440 Descending Denver Center
10:29AM 41.0142 -105.8703 141° Southeast 423 487 28,100 -1,500 Descending Denver Center
10:30AM 40.9114 -105.7628 142° Southeast 397 457 26,500 -1,560 Descending Denver Center
10:31AM 40.8244 -105.6714 141° Southeast 399 459 24,900 -1,680 Descending Denver Center
10:32AM 40.7417 -105.5853 142° Southeast 386 444 23,100 -1,560 Descending Denver Center
10:33AM 40.6642 -105.5061 142° Southeast 357 411 21,700 -1,380 Descending Denver Center
10:34AM 40.5914 -105.4183 138° Southeast 356 410 20,300 -1,740 Descending Denver Center
10:36AM 40.4833 -105.2333 127° Southeast 324 373 16,800 -1,920 Descending Denver TRACON
10:37AM 40.4667 -105.1333 102° East 319 367 15,200 -1,200 Descending Denver TRACON
10:38AM 40.4333 -105.0167 111° Southeast 306 352 14,600 -420 Descending Denver TRACON
10:39AM 40.4000 -104.9167 114° Southeast 279 321 14,400 -480 Descending Denver TRACON
10:40AM 40.3667 -104.8333 118° Southeast 270 311 13,700 -960 Descending Denver TRACON
10:41AM 40.3333 -104.7667 123° Southeast 261 300 12,500 -1,140 Descending Denver TRACON
10:41AM 40.3103 -104.7306 130° Southeast 267 307 12,000 -1,320 Descending Denver Center
10:42AM 40.2297 -104.7025 165° South 257 296 10,500 -1,260 Descending Denver Center
10:43AM 40.1642 -104.6875 170° South 248 285 9,500 -960 Descending Denver Center
10:44AM 40.0997 -104.6797 175° South 240 276 8,600 -780 Descending Denver Center
10:45AM 40.0389 -104.6836 183° South 229 264 7,900 -780 Descending Denver Center
10:46AM 39.9833 -104.6856 182° South 214 246 7,000 -840 Descending Denver Center
10:47AM 39.9347 -104.6853 180° South 192 221 6,200 -780 Descending Denver Center
10:48AM 39.8881 -104.6867 181° South 155 178 5,400 -780 Descending Denver Center